createdAt,value
2022-10-08T00:00:40.578Z,30.5
2022-10-08T00:04:40.587Z,48.95
2022-10-08T00:08:40.818Z,49.2
2022-10-08T00:12:41.063Z,43
2022-10-08T00:16:41.362Z,50.78
2022-10-08T00:20:40.291Z,51.67
2022-10-08T00:24:40.572Z,49.38
2022-10-08T00:28:40.694Z,47.38
2022-10-08T00:32:39.917Z,49.75
2022-10-08T00:36:40.425Z,55.28
2022-10-08T00:40:40.518Z,64.22
2022-10-08T00:44:40.462Z,45.83
2022-10-08T00:48:40.500Z,50.63
2022-10-08T00:52:41.142Z,49.13
2022-10-08T00:56:40.274Z,43.6
2022-10-08T01:00:40.368Z,45.6
2022-10-08T01:04:40.631Z,59.8
2022-10-08T01:08:40.498Z,49.6
2022-10-08T01:12:40.603Z,50.47
2022-10-08T01:16:40.746Z,51.17
2022-10-08T01:20:40.600Z,57.15
2022-10-08T01:24:40.452Z,56.78
2022-10-08T01:28:40.693Z,50.4
2022-10-08T01:32:40.287Z,53.72
2022-10-08T01:36:39.887Z,53.87
2022-10-08T01:40:41.068Z,60.85
2022-10-08T01:44:40.427Z,48.7
2022-10-08T01:48:40.241Z,49.2
2022-10-08T01:52:40.477Z,45.05
2022-10-08T01:56:40.442Z,64.65
2022-10-08T02:00:40.619Z,44.63
2022-10-08T02:04:40.538Z,60.67
2022-10-08T02:08:40.453Z,57.2
2022-10-08T02:12:41.151Z,53.63
2022-10-08T02:16:40.504Z,55.75
2022-10-08T02:20:40.499Z,73.72
2022-10-08T02:24:40.561Z,60.9
2022-10-08T02:28:40.577Z,41.8
2022-10-08T02:32:40.516Z,45.9
2022-10-08T02:36:40.631Z,57.1
2022-10-08T02:40:40.495Z,46.17
2022-10-08T02:44:40.413Z,47
2022-10-08T02:48:40.340Z,53.13
2022-10-08T02:52:40.854Z,51.55
2022-10-08T02:56:40.490Z,56.13
2022-10-08T03:00:40.425Z,57.65
2022-10-08T03:04:40.557Z,50.3
2022-10-08T03:08:40.489Z,47
2022-10-08T03:12:40.489Z,53.97
2022-10-08T03:16:40.761Z,52.6
2022-10-08T03:20:40.564Z,47.17
2022-10-08T03:24:40.477Z,52.47
2022-10-08T03:28:40.613Z,52.75
2022-10-08T03:32:40.548Z,62.05
2022-10-08T03:36:40.467Z,39.33
2022-10-08T03:40:40.603Z,42.38
2022-10-08T03:44:40.861Z,49.83
2022-10-08T03:48:40.772Z,53.53
2022-10-08T03:52:40.003Z,45.22
2022-10-08T03:56:40.448Z,55.12
2022-10-08T04:00:40.506Z,58
2022-10-08T04:04:40.672Z,41.45
2022-10-08T04:08:40.535Z,45.85
2022-10-08T04:12:40.493Z,53.28
2022-10-08T04:16:40.672Z,63.4
2022-10-08T04:20:40.621Z,53.05
2022-10-08T04:24:40.421Z,41.25
2022-10-08T04:28:40.688Z,49.75
2022-10-08T04:32:40.492Z,63.55
2022-10-08T04:36:40.613Z,64.5
2022-10-08T04:40:40.507Z,42.83
2022-10-08T04:44:40.856Z,47.53
2022-10-08T04:48:40.857Z,40.92
2022-10-08T04:52:40.504Z,48.67
2022-10-08T04:56:40.614Z,43.17
2022-10-08T05:00:40.354Z,54.1
2022-10-08T05:04:40.632Z,44.55
2022-10-08T05:08:40.584Z,42.72
2022-10-08T05:12:40.432Z,45.88
2022-10-08T05:16:40.432Z,42.08
2022-10-08T05:20:40.543Z,50.88
2022-10-08T05:24:40.890Z,45.17
2022-10-08T05:28:40.458Z,49.05
2022-10-08T05:32:40.410Z,47.2
2022-10-08T05:36:40.637Z,41.4
2022-10-08T05:40:40.925Z,48.67
2022-10-08T05:44:45.606Z,39.42
2022-10-08T05:48:40.496Z,41.13
2022-10-08T05:52:40.856Z,52.45
2022-10-08T05:56:40.564Z,42
2022-10-08T06:00:40.630Z,34.88
2022-10-08T06:04:40.599Z,31.65
2022-10-08T06:08:40.630Z,36.92
2022-10-08T06:12:40.164Z,35.4
2022-10-08T06:16:40.459Z,32.85
2022-10-08T06:20:40.533Z,27.45
2022-10-08T06:24:40.468Z,30.4
2022-10-08T06:28:40.704Z,17.7
2022-10-08T06:32:41.119Z,21.67
2022-10-08T06:36:41.039Z,15.15
2022-10-08T06:40:40.521Z,19.42
2022-10-08T06:44:40.522Z,23.48
2022-10-08T06:48:40.606Z,18.25
2022-10-08T06:52:40.476Z,13.15
2022-10-08T06:56:40.564Z,13.9
2022-10-08T07:00:40.346Z,15.98
2022-10-08T07:04:40.852Z,17.45
2022-10-08T07:08:40.501Z,19.83
2022-10-08T07:12:39.978Z,12.65
2022-10-08T07:16:40.642Z,10.07
2022-10-08T07:20:40.388Z,14.55
2022-10-08T07:24:40.888Z,18.33
2022-10-08T07:28:40.655Z,12.85
2022-10-08T07:32:40.641Z,15.68
2022-10-08T07:36:40.424Z,15.93
2022-10-08T07:40:40.668Z,14.95
2022-10-08T07:44:40.485Z,16.9
2022-10-08T07:48:40.350Z,14.2
2022-10-08T07:52:40.439Z,13.2
2022-10-08T07:56:41.400Z,14.98
2022-10-08T08:00:40.582Z,11.68
2022-10-08T08:04:40.821Z,13.07
2022-10-08T08:08:40.660Z,14.95
2022-10-08T08:12:40.574Z,10.13
2022-10-08T08:16:40.781Z,9.38
2022-10-08T08:20:40.480Z,11.82
2022-10-08T08:24:40.480Z,20.1
2022-10-08T08:28:39.417Z,9.15
2022-10-08T08:32:40.410Z,15.52
2022-10-08T08:36:40.302Z,11.32
2022-10-08T08:40:40.829Z,10.98
2022-10-08T08:44:40.471Z,14.3
2022-10-08T08:48:39.876Z,13
2022-10-08T08:52:40.945Z,10.02
2022-10-08T08:56:40.538Z,7.5
2022-10-08T09:00:40.638Z,14.75
2022-10-08T09:04:44.949Z,10.75
2022-10-08T09:08:40.396Z,10.52
2022-10-08T09:12:40.620Z,9.2
2022-10-08T09:16:41.314Z,9.43
2022-10-08T09:20:40.633Z,15.1
2022-10-08T09:24:40.553Z,11.2
2022-10-08T09:28:40.763Z,12.07
2022-10-08T09:32:40.627Z,13.45
2022-10-08T09:36:40.252Z,9.55
2022-10-08T09:40:40.558Z,12.9
2022-10-08T09:44:40.511Z,8.38
2022-10-08T09:48:39.289Z,11.48
2022-10-08T09:52:40.510Z,11.43
2022-10-08T09:56:40.428Z,13.25
2022-10-08T10:00:40.580Z,13.82
2022-10-08T10:04:40.696Z,12
2022-10-08T10:08:40.421Z,12.25
2022-10-08T10:12:40.623Z,12.82
2022-10-08T10:16:40.930Z,14.68
2022-10-08T10:20:40.524Z,9.05
2022-10-08T10:24:40.515Z,11.98
2022-10-08T10:28:40.701Z,12.18
2022-10-08T10:32:40.774Z,15.9
2022-10-08T10:36:40.536Z,8.85
2022-10-08T10:40:40.485Z,9.43
2022-10-08T10:44:40.609Z,13.48
2022-10-08T10:48:40.436Z,7
2022-10-08T10:52:40.463Z,8.48
2022-10-08T10:56:40.377Z,12.37
2022-10-08T11:00:39.735Z,9.25
2022-10-08T11:04:40.519Z,6.9
2022-10-08T11:08:40.260Z,6.12
2022-10-08T11:12:40.659Z,5.97
2022-10-08T11:16:40.701Z,5.12
2022-10-08T11:20:40.628Z,7.1
2022-10-08T11:24:41.093Z,8.05
2022-10-08T11:28:40.582Z,3.3
2022-10-08T11:32:40.515Z,6.28
2022-10-08T11:36:40.458Z,10.25
2022-10-08T11:40:40.354Z,7.12
2022-10-08T11:44:40.554Z,6.15
2022-10-08T11:48:40.586Z,6.82
2022-10-08T11:52:40.146Z,9.43
2022-10-08T11:56:41.251Z,4.85
2022-10-08T12:00:40.736Z,8.45
2022-10-08T12:04:40.909Z,5.55
2022-10-08T12:08:40.624Z,7.43
2022-10-08T12:12:40.283Z,10.77
2022-10-08T12:16:40.646Z,5.37
2022-10-08T12:20:40.666Z,13.25
2022-10-08T12:24:41.674Z,9.32
2022-10-08T12:28:40.564Z,4.82
2022-10-08T12:32:40.844Z,10.05
2022-10-08T12:36:41.128Z,4.15
2022-10-08T12:40:40.746Z,6.53
2022-10-08T12:44:40.480Z,5.18
2022-10-08T12:48:40.893Z,6.15
2022-10-08T12:52:40.648Z,9.4
2022-10-08T12:56:40.509Z,4.87
2022-10-08T13:00:40.727Z,7.07
2022-10-08T13:04:40.600Z,2.42
2022-10-08T13:08:41.217Z,5.9
2022-10-08T13:12:40.450Z,7.37
2022-10-08T13:16:39.410Z,5.68
2022-10-08T13:20:40.793Z,7.7
2022-10-08T13:24:40.623Z,4.57
2022-10-08T13:28:59.131Z,6.95
2022-10-08T13:32:40.929Z,4.95
2022-10-08T13:36:40.434Z,9.52
2022-10-08T13:40:41.186Z,6.32
2022-10-08T13:44:40.522Z,9.7
2022-10-08T13:48:40.487Z,11.45
2022-10-08T13:52:40.580Z,10.23
2022-10-08T13:56:40.315Z,9.2
2022-10-08T14:00:40.889Z,7.18
2022-10-08T14:04:39.988Z,4.1
2022-10-08T14:08:40.773Z,6.4
2022-10-08T14:12:40.794Z,5.05
2022-10-08T14:16:40.735Z,3.37
2022-10-08T14:20:40.662Z,8.77
2022-10-08T14:24:40.249Z,7.97
2022-10-08T14:28:40.982Z,6.25
2022-10-08T14:32:40.411Z,7.15
2022-10-08T14:36:40.535Z,7.32
2022-10-08T14:40:40.405Z,7.7
2022-10-08T14:44:40.542Z,3.87
2022-10-08T14:48:41.287Z,7.05
2022-10-08T14:52:44.340Z,11.3
2022-10-08T14:56:41.160Z,4.15
2022-10-08T15:00:40.845Z,7.43
2022-10-08T15:04:40.453Z,6.18
2022-10-08T15:08:40.489Z,4.05
2022-10-08T15:12:41.149Z,5.95
2022-10-08T15:16:40.425Z,9.5
2022-10-08T15:20:40.548Z,12.05
2022-10-08T15:24:40.437Z,4.15
2022-10-08T15:28:41.325Z,13.2
2022-10-08T15:32:40.475Z,5.75
2022-10-08T15:36:40.505Z,9.65
2022-10-08T15:40:40.899Z,8.98
2022-10-08T15:44:40.632Z,6.65
2022-10-08T15:48:40.598Z,4.78
2022-10-08T15:52:46.067Z,12.43
2022-10-08T15:56:40.449Z,2.95
2022-10-08T16:00:40.606Z,5.87
2022-10-08T16:04:40.813Z,3.6
2022-10-08T16:08:41.263Z,7.72
2022-10-08T16:12:40.473Z,3
2022-10-08T16:16:40.595Z,10.07
2022-10-08T16:20:40.632Z,4.5
2022-10-08T16:24:40.472Z,4.3
2022-10-08T16:28:41.231Z,3.87
2022-10-08T16:32:40.535Z,4.75
2022-10-08T16:36:40.459Z,5.5
2022-10-08T16:40:40.346Z,6.75
2022-10-08T16:44:40.959Z,5.78
2022-10-08T16:48:40.430Z,3.83
2022-10-08T16:52:41.050Z,9.35
2022-10-08T16:56:40.913Z,6.82
2022-10-08T17:00:40.888Z,5.18
2022-10-08T17:04:40.456Z,8.3
2022-10-08T17:08:40.445Z,5.3
2022-10-08T17:12:40.478Z,6.6
2022-10-08T17:16:40.653Z,7.07
2022-10-08T17:20:40.675Z,9.52
2022-10-08T17:24:42.480Z,6.75
2022-10-08T17:28:40.530Z,6.68
2022-10-08T17:32:40.817Z,8.9
2022-10-08T17:36:40.522Z,7.2
2022-10-08T17:40:40.775Z,4.43
2022-10-08T17:44:39.727Z,4.82
2022-10-08T17:48:40.336Z,8.23
2022-10-08T17:52:40.671Z,3.8
2022-10-08T17:56:41.154Z,4.87
2022-10-08T18:00:40.568Z,5.18
2022-10-08T18:04:40.965Z,8
2022-10-08T18:08:41.128Z,6.4
2022-10-08T18:12:40.510Z,3.78
2022-10-08T18:16:45.478Z,21.15
2022-10-08T18:20:40.421Z,5
2022-10-08T18:24:40.450Z,15.1
2022-10-08T18:28:40.963Z,6.62
2022-10-08T18:32:40.939Z,16.95
2022-10-08T18:36:40.522Z,11.68
2022-10-08T18:40:40.898Z,5.4
2022-10-08T18:44:40.458Z,8.38
2022-10-08T18:48:40.876Z,10.68
2022-10-08T18:52:40.597Z,7.62
2022-10-08T18:56:40.289Z,12.18
2022-10-08T19:00:40.662Z,8.85
2022-10-08T19:04:40.561Z,7.3
2022-10-08T19:08:40.537Z,6.78
2022-10-08T19:12:40.503Z,9.77
2022-10-08T19:16:40.502Z,9
2022-10-08T19:20:40.469Z,6.62
2022-10-08T19:24:41.269Z,6.82
2022-10-08T19:28:41.167Z,5.72
2022-10-08T19:32:40.731Z,7.1
2022-10-08T19:36:40.466Z,6.45
2022-10-08T19:40:40.902Z,5.68
2022-10-08T19:44:40.575Z,8.25
2022-10-08T19:48:40.957Z,8.93
2022-10-08T19:52:40.675Z,8
2022-10-08T19:56:41.295Z,6.82
2022-10-08T20:00:40.556Z,5.8
2022-10-08T20:04:40.524Z,14.57
2022-10-08T20:08:40.561Z,4.72
2022-10-08T20:12:40.699Z,9.4
2022-10-08T20:16:40.822Z,7.37
2022-10-08T20:20:41.354Z,15.2
2022-10-08T20:24:40.518Z,8.18
2022-10-08T20:28:40.599Z,7.28
2022-10-08T20:32:40.550Z,9.73
2022-10-08T20:36:40.435Z,6.85
2022-10-08T20:40:40.878Z,7.4
2022-10-08T20:44:40.781Z,5.2
2022-10-08T20:48:40.473Z,8.25
2022-10-08T20:52:40.539Z,7.75
2022-10-08T20:56:40.756Z,12.6
2022-10-08T21:00:40.406Z,8.9
2022-10-08T21:04:40.538Z,7.03
2022-10-08T21:08:40.636Z,6.3
2022-10-08T21:12:40.450Z,8
2022-10-08T21:16:40.533Z,12.43
2022-10-08T21:20:40.504Z,7.4
2022-10-08T21:24:40.267Z,9.68
2022-10-08T21:28:40.549Z,6.6
2022-10-08T21:32:40.638Z,6.53
2022-10-08T21:36:40.513Z,5.62
2022-10-08T21:40:40.681Z,8.95
2022-10-08T21:44:40.453Z,4.35
2022-10-08T21:48:40.431Z,3.4
2022-10-08T21:52:40.640Z,3.3
2022-10-08T21:56:41.124Z,7
2022-10-08T22:00:40.910Z,4.97
2022-10-08T22:04:39.478Z,14.45
2022-10-08T22:08:40.292Z,7.22
2022-10-08T22:12:41.116Z,4.75
2022-10-08T22:16:40.352Z,7.07
2022-10-08T22:20:40.656Z,7.72
2022-10-08T22:24:40.549Z,8.13
2022-10-08T22:28:40.458Z,9.27
2022-10-08T22:32:40.712Z,11
2022-10-08T22:36:40.425Z,9.05
2022-10-08T22:40:40.445Z,9.4
2022-10-08T22:44:40.637Z,5.22
2022-10-08T22:48:40.509Z,6.97
2022-10-08T22:52:40.429Z,7.75
2022-10-08T22:56:40.410Z,9.9
2022-10-08T23:00:40.704Z,6.28
2022-10-08T23:04:41.177Z,4.87
2022-10-08T23:08:40.572Z,3.45
2022-10-08T23:12:40.442Z,3.22
2022-10-08T23:16:41.223Z,10.4
2022-10-08T23:20:40.455Z,9.2
2022-10-08T23:24:40.436Z,10.25
2022-10-08T23:28:40.995Z,11
2022-10-08T23:32:40.628Z,10.3
2022-10-08T23:36:41.169Z,3.6
2022-10-08T23:40:40.563Z,7.97
2022-10-08T23:44:40.429Z,11.13
2022-10-08T23:48:40.536Z,10.73
2022-10-08T23:52:40.662Z,11.63
2022-10-08T23:56:40.431Z,6.57
